Time;durP1;ratioP1;P1;durP2;ratioP2;P2;SDS_P1;SDS_P2;PMS_P1;PMS_P2;Temp;Humidity;BMP_temperature;BMP_pressure;BME280_temperature;BME280_humidity;BME280_pressure;Samples;Min_cycle;Max_cycle;Signal;HPM_P1;HPM_P2
2022/08/02 00:00:13;;;;;;;5.83;2.50;;;19.70;37.20;;;;;;5063871;28;20461;-61
2022/08/02 00:02:39;;;;;;;6.30;2.47;;;19.70;37.40;;;;;;5065942;28;21259;-60
2022/08/02 00:05:07;;;;;;;4.70;2.37;;;19.70;37.10;;;;;;5070495;28;20477;-60
2022/08/02 00:07:35;;;;;;;5.23;2.57;;;19.60;37.60;;;;;;5071868;28;20461;-60
2022/08/02 00:10:04;;;;;;;9.80;2.70;;;19.60;37.70;;;;;;5072338;28;20467;-59
2022/08/02 00:12:31;;;;;;;5.80;2.07;;;19.60;37.60;;;;;;5066686;28;20483;-60
2022/08/02 00:14:57;;;;;;;7.50;2.20;;;19.60;37.90;;;;;;5069123;28;20461;-61
2022/08/02 00:17:25;;;;;;;4.27;2.00;;;19.60;38.30;;;;;;5069737;28;20544;-60
2022/08/02 00:19:51;;;;;;;5.70;2.57;;;19.60;37.90;;;;;;5070177;28;20540;-59
2022/08/02 00:22:18;;;;;;;6.23;2.83;;;19.50;37.90;;;;;;5064331;28;20481;-61
2022/08/02 00:24:45;;;;;;;5.20;2.20;;;19.50;38.20;;;;;;5062222;28;20469;-60
2022/08/02 00:27:13;;;;;;;5.50;2.50;;;19.50;38.40;;;;;;5070763;28;20457;-60
2022/08/02 00:29:43;;;;;;;7.33;2.17;;;19.50;38.30;;;;;;5069794;28;20461;-59
2022/08/02 00:32:10;;;;;;;6.10;2.43;;;19.50;38.10;;;;;;5068359;28;20469;-60
2022/08/02 00:34:37;;;;;;;5.07;2.27;;;19.50;38.00;;;;;;5065971;28;21081;-60
2022/08/02 00:37:04;;;;;;;5.30;2.23;;;19.50;38.50;;;;;;5069843;28;20461;-60
2022/08/02 00:39:30;;;;;;;7.57;2.30;;;19.50;38.50;;;;;;5066202;28;20969;-60
2022/08/02 00:41:57;;;;;;;4.90;2.27;;;19.50;38.40;;;;;;5068840;28;21060;-59
2022/08/02 00:44:26;;;;;;;6.87;2.50;;;19.40;38.30;;;;;;5067113;28;20953;-58
2022/08/02 00:46:53;;;;;;;7.07;2.63;;;19.40;38.20;;;;;;5063258;28;20511;-60
2022/08/02 00:49:20;;;;;;;5.40;2.50;;;19.40;38.00;;;;;;5069589;28;20462;-60
2022/08/02 00:51:47;;;;;;;7.53;2.60;;;19.30;38.20;;;;;;5068431;28;20473;-60
2022/08/02 00:54:13;;;;;;;5.80;2.20;;;19.30;38.10;;;;;;5066482;28;20477;-59
2022/08/02 00:56:41;;;;;;;6.33;1.97;;;19.30;38.20;;;;;;5064477;28;21283;-60
2022/08/02 00:59:07;;;;;;;7.83;2.17;;;19.20;38.30;;;;;;5066775;28;20476;-61
2022/08/02 01:01:38;;;;;;;4.83;2.40;;;19.20;38.10;;;;;;5065299;28;20473;-59
2022/08/02 01:04:07;;;;;;;8.87;2.33;;;19.20;38.30;;;;;;5071643;28;20484;-59
2022/08/02 01:06:33;;;;;;;4.97;2.50;;;19.10;38.00;;;;;;5067541;28;20469;-58
2022/08/02 01:09:00;;;;;;;5.77;2.67;;;19.10;38.00;;;;;;5068323;28;20465;-59
2022/08/02 01:11:27;;;;;;;5.07;1.67;;;19.00;38.10;;;;;;5065402;28;20464;-60
2022/08/02 01:13:58;;;;;;;6.00;1.80;;;19.00;38.10;;;;;;5065848;28;20606;-59
2022/08/02 01:16:30;;;;;;;5.37;2.27;;;19.00;37.80;;;;;;5065315;28;20472;-59
2022/08/02 01:19:06;;;;;;;5.27;2.13;;;19.00;37.60;;;;;;5065222;28;20552;-61
2022/08/02 01:21:40;;;;;;;4.47;1.90;;;19.00;37.60;;;;;;5065170;28;20468;-59
2022/08/02 01:24:21;;;;;;;10.33;2.10;;;19.00;37.30;;;;;;5064271;28;20485;-59
2022/08/02 01:26:52;;;;;;;6.20;2.50;;;18.90;37.40;;;;;;5064511;28;20468;-61
2022/08/02 01:29:26;;;;;;;4.27;1.90;;;18.90;37.50;;;;;;5066962;28;20461;-60
2022/08/02 01:31:59;;;;;;;4.60;2.13;;;18.90;37.70;;;;;;5064373;28;20512;-57
2022/08/02 01:34:32;;;;;;;5.47;2.17;;;18.90;37.80;;;;;;5066020;28;20464;-60
2022/08/02 01:37:03;;;;;;;8.57;1.83;;;18.80;38.30;;;;;;5064891;28;20461;-59
2022/08/02 01:39:33;;;;;;;6.40;1.97;;;18.80;37.90;;;;;;5064954;28;21027;-59
2022/08/02 01:42:01;;;;;;;4.90;1.73;;;18.80;37.70;;;;;;5062765;28;20843;-62
2022/08/02 01:44:34;;;;;;;6.17;2.40;;;18.80;37.90;;;;;;5065541;28;20851;-60
2022/08/02 01:47:05;;;;;;;4.50;2.10;;;18.80;37.80;;;;;;5061431;28;20457;-61
2022/08/02 01:49:34;;;;;;;7.80;2.60;;;18.80;38.00;;;;;;5064297;28;20683;-61
2022/08/02 01:54:50;;;;;;;5.17;2.40;;;18.70;38.20;;;;;;5062049;28;20583;-60
2022/08/02 01:57:18;;;;;;;5.83;1.93;;;18.70;38.10;;;;;;5062625;28;20446;-59
2022/08/02 01:59:48;;;;;;;7.27;4.17;;;18.70;38.30;;;;;;5066276;28;20840;-60
2022/08/02 02:02:16;;;;;;;5.80;2.17;;;18.70;38.20;;;;;;5061713;28;20489;-60
2022/08/02 02:04:45;;;;;;;7.53;2.57;;;18.70;38.40;;;;;;5062927;28;20461;-59
2022/08/02 02:07:14;;;;;;;7.03;2.77;;;18.70;38.40;;;;;;5066609;28;20941;-61
2022/08/02 02:09:42;;;;;;;6.40;2.80;;;18.70;38.40;;;;;;5065315;28;20457;-60
2022/08/02 02:12:12;;;;;;;5.87;2.77;;;18.60;38.80;;;;;;5065492;28;20483;-60
2022/08/02 02:14:40;;;;;;;7.37;3.10;;;18.60;38.90;;;;;;5064972;28;20453;-60
2022/08/02 02:17:12;;;;;;;6.50;3.00;;;18.60;38.80;;;;;;5064808;28;20457;-60
2022/08/02 02:19:40;;;;;;;6.30;3.23;;;18.60;38.90;;;;;;5065422;28;20471;-60
2022/08/02 02:22:07;;;;;;;6.50;2.60;;;18.60;38.90;;;;;;5067782;28;21008;-60
2022/08/02 02:24:34;;;;;;;5.10;2.40;;;18.60;38.90;;;;;;5062767;28;20488;-59
2022/08/02 02:27:03;;;;;;;7.40;2.60;;;18.60;38.70;;;;;;5067356;28;20520;-61
2022/08/02 02:29:32;;;;;;;5.57;3.00;;;18.60;38.60;;;;;;5064441;28;20462;-58
2022/08/02 02:32:00;;;;;;;6.97;2.80;;;18.60;38.60;;;;;;5064610;28;20496;-60
2022/08/02 02:34:33;;;;;;;10.40;3.20;;;18.60;38.70;;;;;;5062219;28;20465;-59
2022/08/02 02:37:03;;;;;;;8.10;3.43;;;18.50;38.90;;;;;;5065743;28;20467;-61
2022/08/02 02:39:32;;;;;;;6.37;2.70;;;18.50;38.70;;;;;;5064232;28;20465;-61
2022/08/02 02:42:03;;;;;;;7.50;2.83;;;18.50;38.60;;;;;;5063403;28;20469;-61
2022/08/02 02:44:31;;;;;;;6.70;2.60;;;18.50;38.80;;;;;;5073424;28;20887;-61
2022/08/02 02:46:59;;;;;;;6.27;2.87;;;18.50;38.50;;;;;;5064780;28;20466;-60
2022/08/02 02:49:27;;;;;;;5.30;2.40;;;18.50;38.40;;;;;;5065813;28;20496;-60
2022/08/02 02:51:56;;;;;;;10.17;3.00;;;18.50;38.50;;;;;;5062735;28;20850;-60
2022/08/02 02:54:24;;;;;;;5.90;3.17;;;18.50;38.40;;;;;;5062747;28;20457;-60
2022/08/02 02:56:52;;;;;;;9.07;3.67;;;18.50;38.90;;;;;;5064980;28;20468;-61
2022/08/02 02:59:19;;;;;;;6.63;3.27;;;18.50;38.80;;;;;;5066507;28;20460;-60
2022/08/02 03:01:46;;;;;;;8.20;4.00;;;18.50;39.00;;;;;;5064712;28;20473;-60
2022/08/02 03:04:14;;;;;;;5.83;3.30;;;18.50;39.00;;;;;;5065824;28;20481;-61
2022/08/02 03:06:41;;;;;;;5.90;3.00;;;18.50;38.80;;;;;;5065950;28;20972;-60
2022/08/02 03:09:10;;;;;;;8.87;3.20;;;18.40;38.80;;;;;;5065444;28;20474;-59
2022/08/02 03:11:38;;;;;;;7.80;3.60;;;18.40;38.60;;;;;;5065531;28;20471;-59
2022/08/02 03:14:08;;;;;;;7.40;3.40;;;18.40;38.50;;;;;;5061225;28;20477;-60
2022/08/02 03:16:42;;;;;;;26.63;4.50;;;18.40;38.50;;;;;;5062868;28;20461;-64
2022/08/02 03:19:09;;;;;;;6.90;3.20;;;18.30;38.90;;;;;;5063688;28;20457;-60
2022/08/02 03:21:36;;;;;;;7.17;3.73;;;18.30;38.90;;;;;;5065892;28;20841;-60
2022/08/02 03:24:03;;;;;;;5.87;3.37;;;18.30;39.20;;;;;;5063575;28;21550;-60
2022/08/02 03:26:31;;;;;;;7.53;3.73;;;18.30;39.30;;;;;;5068695;28;20530;-59
2022/08/02 03:28:58;;;;;;;6.70;3.37;;;18.20;39.20;;;;;;5067588;28;20461;-60
2022/08/02 03:31:25;;;;;;;5.77;3.20;;;18.30;39.60;;;;;;5066771;28;20473;-60
2022/08/02 03:33:53;;;;;;;8.80;3.20;;;18.30;39.60;;;;;;5068221;28;20480;-60
2022/08/02 03:36:41;;;;;;;9.70;4.13;;;18.30;39.80;;;;;;5071549;28;20469;-62
2022/08/02 03:39:09;;;;;;;6.83;3.37;;;18.20;39.80;;;;;;5066503;28;20492;-61
2022/08/02 03:41:38;;;;;;;6.60;3.40;;;18.20;39.70;;;;;;5068778;28;20466;-59
2022/08/02 03:44:06;;;;;;;6.27;3.40;;;18.10;39.70;;;;;;5064910;28;20481;-60
2022/08/02 03:46:38;;;;;;;5.60;3.50;;;18.10;39.90;;;;;;5070209;28;20461;-59
2022/08/02 03:49:05;;;;;;;8.00;3.50;;;18.10;40.20;;;;;;5066488;28;20465;-59
2022/08/02 03:51:33;;;;;;;8.53;3.47;;;18.10;40.00;;;;;;5069328;28;20858;-60
2022/08/02 03:54:01;;;;;;;7.93;4.07;;;18.10;40.00;;;;;;5066454;28;20476;-60
2022/08/02 03:56:28;;;;;;;6.00;3.53;;;18.10;40.20;;;;;;5070743;28;20461;-61
2022/08/02 03:59:07;;;;;;;9.57;3.60;;;18.20;40.20;;;;;;5066796;28;20465;-60
2022/08/02 04:01:34;;;;;;;8.10;3.70;;;18.10;40.60;;;;;;5061370;28;20473;-59
2022/08/02 04:04:01;;;;;;;7.10;3.80;;;18.20;40.30;;;;;;5069325;28;20480;-59
2022/08/02 04:06:28;;;;;;;5.80;2.57;;;18.20;40.30;;;;;;5068394;28;20453;-60
2022/08/02 04:08:54;;;;;;;6.77;3.80;;;18.20;40.10;;;;;;5067110;28;20473;-60
2022/08/02 04:11:33;;;;;;;6.30;3.10;;;18.20;39.90;;;;;;5069237;28;20468;-60
2022/08/02 04:14:01;;;;;;;7.43;3.10;;;18.20;40.00;;;;;;5064463;28;20481;-61
2022/08/02 04:16:40;;;;;;;11.47;3.70;;;18.20;40.00;;;;;;5068184;28;20514;-60
2022/08/02 04:19:09;;;;;;;7.83;3.60;;;18.20;40.20;;;;;;5059853;28;20511;-60
2022/08/02 04:21:38;;;;;;;6.03;3.30;;;18.30;39.90;;;;;;5066025;28;20470;-59
2022/08/02 04:24:07;;;;;;;6.40;3.23;;;18.30;39.80;;;;;;5065724;28;20484;-59
2022/08/02 04:26:35;;;;;;;7.27;3.67;;;18.40;39.90;;;;;;5061018;28;20488;-62
2022/08/02 04:29:02;;;;;;;8.53;3.00;;;18.40;40.10;;;;;;5063480;28;20457;-60
2022/08/02 04:31:29;;;;;;;5.90;2.83;;;18.50;40.20;;;;;;5064427;28;20469;-59
2022/08/02 04:33:58;;;;;;;10.37;3.37;;;18.50;40.20;;;;;;5065904;28;20495;-60
2022/08/02 04:36:25;;;;;;;6.57;2.73;;;18.60;40.00;;;;;;5059338;28;20465;-60
2022/08/02 04:38:52;;;;;;;7.67;3.57;;;18.70;40.00;;;;;;5065962;28;20461;-60
2022/08/02 04:41:19;;;;;;;6.47;3.27;;;18.80;39.80;;;;;;5065220;28;20465;-59
2022/08/02 04:43:45;;;;;;;5.20;3.00;;;18.80;39.80;;;;;;5068997;28;20485;-60
2022/08/02 04:46:12;;;;;;;6.90;3.30;;;18.80;39.70;;;;;;5064119;28;21176;-59
2022/08/02 04:48:39;;;;;;;7.60;3.60;;;18.90;39.30;;;;;;5059168;28;20462;-62
2022/08/02 04:51:07;;;;;;;6.07;2.90;;;18.90;38.90;;;;;;5066802;28;20473;-59
2022/08/02 04:53:34;;;;;;;7.20;3.20;;;19.00;38.70;;;;;;5061613;28;20480;-58
2022/08/02 04:56:01;;;;;;;7.77;3.43;;;19.00;38.60;;;;;;5065689;28;20462;-58
2022/08/02 04:58:27;;;;;;;5.87;3.50;;;19.00;38.70;;;;;;5059202;28;20454;-61
2022/08/02 05:00:54;;;;;;;9.50;4.10;;;19.00;38.80;;;;;;5062828;28;20473;-61
2022/08/02 05:03:21;;;;;;;8.03;3.60;;;19.10;38.60;;;;;;5063257;28;20492;-61
2022/08/02 05:05:48;;;;;;;5.90;3.30;;;19.20;38.80;;;;;;5064262;28;20480;-63
2022/08/02 05:08:16;;;;;;;7.63;3.80;;;19.40;38.00;;;;;;5067895;28;20465;-63
2022/08/02 05:10:42;;;;;;;8.30;3.57;;;19.90;37.70;;;;;;5060583;28;20477;-62
2022/08/02 05:13:09;;;;;;;6.87;3.50;;;21.50;34.70;;;;;;5066895;28;21051;-62
2022/08/02 05:15:36;;;;;;;8.40;3.73;;;23.30;29.60;;;;;;5060073;28;20454;-63
2022/08/02 05:18:03;;;;;;;9.10;3.00;;;24.90;24.50;;;;;;5064867;28;20954;-63
2022/08/02 05:20:30;;;;;;;6.43;3.07;;;26.50;19.70;;;;;;5067927;28;20524;-62
2022/08/02 05:22:56;;;;;;;6.97;2.97;;;27.90;16.30;;;;;;5063190;28;20493;-63
2022/08/02 05:25:24;;;;;;;8.10;3.40;;;29.20;14.30;;;;;;5067058;28;20477;-60
2022/08/02 05:27:51;;;;;;;6.10;3.03;;;30.40;11.70;;;;;;5067426;28;20469;-62
2022/08/02 05:30:18;;;;;;;8.80;2.80;;;31.50;9.40;;;;;;5068296;28;20473;-63
2022/08/02 05:32:47;;;;;;;8.93;3.13;;;32.30;7.50;;;;;;5074440;28;20504;-63
2022/08/02 05:35:17;;;;;;;6.77;3.90;;;32.60;6.10;;;;;;5057816;28;20454;-62
2022/08/02 05:37:43;;;;;;;7.97;3.10;;;32.20;6.40;;;;;;5066896;28;20456;-61
2022/08/02 05:40:10;;;;;;;6.63;3.00;;;32.00;6.90;;;;;;5065088;28;20461;-63
2022/08/02 05:42:39;;;;;;;6.30;3.00;;;32.40;6.50;;;;;;5069339;28;20480;-63
2022/08/02 05:45:07;;;;;;;5.40;2.83;;;33.30;5.30;;;;;;5067329;28;20508;-63
2022/08/02 05:47:34;;;;;;;6.83;2.97;;;34.40;4.00;;;;;;5060163;28;20544;-62
2022/08/02 05:50:01;;;;;;;6.00;2.70;;;35.40;2.40;;;;;;5061161;28;20861;-62
2022/08/02 05:52:45;;;;;;;8.00;3.30;;;36.40;1.00;;;;;;5061688;28;20477;-62
2022/08/02 05:55:16;;;;;;;4.60;2.60;;;37.40;1.00;;;;;;5062258;28;20461;-63
2022/08/02 05:57:52;;;;;;;5.00;2.60;;;38.20;1.00;;;;;;5065751;28;20495;-62
2022/08/02 06:00:21;;;;;;;6.60;2.83;;;38.80;1.00;;;;;;5075163;28;20459;-65
2022/08/02 06:03:04;;;;;;;6.27;2.90;;;38.80;1.00;;;;;;5072819;28;20533;-62
2022/08/02 06:05:33;;;;;;;7.17;3.47;;;38.90;1.00;;;;;;5068190;28;20485;-61
2022/08/02 06:08:01;;;;;;;8.47;4.13;;;39.70;1.00;;;;;;5066952;28;20543;-62
2022/08/02 06:10:30;;;;;;;8.03;3.10;;;40.70;1.00;;;;;;5066674;28;20488;-63
2022/08/02 06:13:08;;;;;;;6.23;3.87;;;41.10;1.00;;;;;;5069069;28;20497;-63
2022/08/02 06:15:35;;;;;;;4.93;2.73;;;41.00;1.00;;;;;;5067393;28;20464;-62
2022/08/02 06:18:03;;;;;;;5.47;3.07;;;41.20;1.00;;;;;;5067132;28;20479;-61
2022/08/02 06:20:34;;;;;;;5.83;3.00;;;41.40;1.00;;;;;;5066640;28;20510;-61
2022/08/02 06:23:03;;;;;;;5.87;2.87;;;41.30;1.00;;;;;;5064656;28;20848;-62
2022/08/02 06:25:30;;;;;;;5.97;3.20;;;40.90;1.00;;;;;;5063806;28;20499;-60
2022/08/02 06:28:00;;;;;;;5.67;2.90;;;40.50;1.00;;;;;;5068744;28;20462;-62
2022/08/02 06:30:27;;;;;;;5.17;3.30;;;40.80;1.00;;;;;;5066333;28;20468;-62
2022/08/02 06:32:54;;;;;;;4.83;2.97;;;41.00;1.00;;;;;;5062476;28;20479;-60
2022/08/02 06:35:21;;;;;;;6.07;3.33;;;41.80;1.00;;;;;;5064793;28;20464;-62
2022/08/02 06:37:51;;;;;;;4.37;2.50;;;42.80;1.00;;;;;;5068161;28;20468;-59
2022/08/02 06:40:25;;;;;;;6.07;2.70;;;43.30;1.00;;;;;;5066946;28;20461;-57
2022/08/02 06:43:05;;;;;;;4.73;3.07;;;44.20;1.00;;;;;;5069135;28;20477;-58
2022/08/02 06:45:32;;;;;;;4.57;2.80;;;45.30;1.00;;;;;;5068686;28;20479;-57
2022/08/02 06:47:59;;;;;;;5.13;2.67;;;45.70;1.00;;;;;;5063028;28;20552;-56
2022/08/02 06:50:26;;;;;;;5.50;2.77;;;45.60;1.00;;;;;;5067802;28;21012;-57
2022/08/02 06:52:53;;;;;;;5.77;3.20;;;45.20;1.00;;;;;;5072567;28;20489;-58
2022/08/02 06:55:20;;;;;;;6.00;3.07;;;44.90;1.00;;;;;;5067739;28;20457;-58
2022/08/02 06:57:47;;;;;;;4.03;2.50;;;44.60;1.00;;;;;;5067376;28;20457;-59
2022/08/02 07:00:15;;;;;;;7.50;2.60;;;44.80;1.00;;;;;;5066495;28;20472;-59
2022/08/02 07:02:42;;;;;;;6.80;3.53;;;45.30;1.00;;;;;;5070666;28;20868;-58
2022/08/02 07:05:09;;;;;;;4.40;2.80;;;46.00;1.00;;;;;;5066570;28;20492;-58
2022/08/02 07:07:36;;;;;;;5.47;2.77;;;46.30;1.00;;;;;;5062454;28;20476;-57
2022/08/02 07:10:04;;;;;;;4.97;2.77;;;46.90;1.00;;;;;;5069070;28;20461;-58
2022/08/02 07:12:32;;;;;;;6.83;3.00;;;48.00;1.00;;;;;;5067207;28;20477;-58
2022/08/02 07:14:59;;;;;;;6.83;3.40;;;49.00;1.00;;;;;;5067957;28;20472;-57
2022/08/02 07:17:27;;;;;;;6.93;3.20;;;49.90;1.00;;;;;;5069597;28;20480;-58
2022/08/02 07:19:54;;;;;;;5.30;2.70;;;50.50;1.00;;;;;;5068503;28;20476;-58
2022/08/02 07:22:22;;;;;;;4.40;2.40;;;50.30;1.00;;;;;;5068035;28;20865;-59
2022/08/02 07:24:49;;;;;;;4.60;2.50;;;50.00;1.00;;;;;;5069093;28;20531;-58
2022/08/02 07:27:15;;;;;;;7.20;2.70;;;50.30;1.00;;;;;;5068997;28;20945;-59
2022/08/02 07:29:42;;;;;;;5.00;2.40;;;51.00;1.00;;;;;;5070065;28;20487;-58
2022/08/02 07:32:09;;;;;;;4.70;2.40;;;51.70;1.00;;;;;;5066777;28;20484;-58
2022/08/02 07:34:37;;;;;;;4.07;2.47;;;52.10;1.00;;;;;;5064056;28;20461;-59
2022/08/02 07:37:04;;;;;;;3.70;2.33;;;52.30;1.00;;;;;;5069096;28;20457;-58
2022/08/02 07:39:31;;;;;;;5.00;2.33;;;52.90;1.00;;;;;;5067180;28;20480;-58
2022/08/02 07:41:57;;;;;;;4.83;2.57;;;53.30;1.00;;;;;;5066249;28;20977;-58
2022/08/02 07:44:24;;;;;;;4.03;2.57;;;53.80;1.00;;;;;;5069595;28;20491;-58
2022/08/02 07:46:51;;;;;;;3.97;2.37;;;53.80;1.00;;;;;;5067161;28;20467;-59
2022/08/02 07:49:18;;;;;;;3.67;2.10;;;53.80;1.00;;;;;;5065521;28;20521;-59
2022/08/02 07:51:46;;;;;;;5.23;2.00;;;54.00;1.00;;;;;;5068192;28;20460;-58
2022/08/02 07:54:13;;;;;;;5.43;2.70;;;53.70;1.00;;;;;;5066022;28;20480;-59
2022/08/02 07:56:40;;;;;;;3.60;1.70;;;53.60;1.00;;;;;;5068781;28;20467;-58
2022/08/02 07:59:09;;;;;;;4.80;2.60;;;53.30;1.00;;;;;;5069299;28;20514;-59
2022/08/02 08:01:35;;;;;;;3.90;2.50;;;52.90;1.00;;;;;;5064040;28;20925;-58
2022/08/02 08:04:02;;;;;;;3.87;2.23;;;52.80;1.00;;;;;;5062004;28;21008;-58
2022/08/02 08:06:29;;;;;;;4.33;2.20;;;52.60;1.00;;;;;;5066724;28;20487;-57
2022/08/02 08:08:58;;;;;;;3.97;1.90;;;52.20;1.00;;;;;;5071565;28;20528;-57
2022/08/02 08:11:25;;;;;;;4.83;2.30;;;52.20;1.00;;;;;;5068915;28;20464;-57
2022/08/02 08:13:52;;;;;;;4.73;2.27;;;52.50;1.00;;;;;;5067332;28;20841;-58
2022/08/02 08:16:18;;;;;;;4.10;1.97;;;53.00;1.00;;;;;;5072932;28;20860;-57
2022/08/02 08:18:45;;;;;;;3.63;1.80;;;53.10;1.00;;;;;;5072483;28;20518;-57
2022/08/02 08:21:12;;;;;;;5.13;2.17;;;53.50;1.00;;;;;;5074867;28;20617;-57
2022/08/02 08:23:39;;;;;;;4.00;2.10;;;53.60;1.00;;;;;;5063656;28;20989;-57
2022/08/02 08:26:07;;;;;;;3.63;1.90;;;53.80;1.00;;;;;;5068528;28;20492;-58
2022/08/02 08:28:34;;;;;;;5.40;2.40;;;53.90;1.00;;;;;;5071012;28;20464;-58
2022/08/02 08:31:01;;;;;;;3.37;2.23;;;54.10;1.00;;;;;;5070960;28;20577;-57
2022/08/02 08:33:28;;;;;;;3.53;2.30;;;54.30;1.00;;;;;;5072162;28;20509;-58
2022/08/02 08:35:55;;;;;;;3.73;2.03;;;54.50;1.00;;;;;;5065945;28;20449;-57
2022/08/02 08:38:22;;;;;;;4.97;2.17;;;54.60;1.00;;;;;;5072293;28;20882;-58
2022/08/02 08:40:49;;;;;;;4.10;2.50;;;54.80;1.00;;;;;;5072808;28;20457;-57
2022/08/02 08:43:17;;;;;;;4.17;1.80;;;55.30;1.00;;;;;;5072603;28;20851;-59
2022/08/02 08:45:44;;;;;;;4.63;1.97;;;55.50;1.00;;;;;;5068806;28;20495;-58
2022/08/02 08:48:14;;;;;;;5.60;2.40;;;55.50;1.00;;;;;;5075848;28;20463;-61
2022/08/02 08:50:49;;;;;;;4.23;2.20;;;55.50;1.00;;;;;;5061203;28;20466;-60
2022/08/02 08:53:17;;;;;;;3.80;1.80;;;55.20;1.00;;;;;;5070638;28;20483;-61
2022/08/02 08:55:45;;;;;;;3.93;2.10;;;55.00;1.00;;;;;;5070884;28;20468;-61
2022/08/02 08:58:12;;;;;;;2.90;1.40;;;54.80;1.00;;;;;;5077085;28;20471;-60
2022/08/02 09:00:41;;;;;;;5.00;1.80;;;54.90;1.00;;;;;;5066887;28;20810;-60
2022/08/02 09:03:09;;;;;;;4.33;1.90;;;55.50;1.00;;;;;;5074751;28;20548;-61
2022/08/02 09:05:36;;;;;;;4.50;1.90;;;56.10;1.00;;;;;;5070330;28;20480;-60
2022/08/02 09:08:04;;;;;;;4.20;1.53;;;56.60;1.00;;;;;;5068636;28;20456;-61
2022/08/02 09:10:39;;;;;;;4.00;2.13;;;56.90;1.00;;;;;;5069551;28;20480;-63
2022/08/02 09:13:08;;;;;;;3.63;2.00;;;57.20;1.00;;;;;;5071285;28;20226;-62
2022/08/02 09:15:35;;;;;;;3.10;1.77;;;57.40;1.00;;;;;;5067779;28;20191;-62
2022/08/02 09:18:06;;;;;;;3.37;1.53;;;57.40;1.00;;;;;;5071755;28;20194;-62
2022/08/02 09:20:33;;;;;;;4.00;2.37;;;57.60;1.00;;;;;;5076992;28;20298;-62
2022/08/02 09:23:07;;;;;;;5.43;1.70;;;57.80;1.00;;;;;;5070797;28;20234;-61
2022/08/02 09:25:34;;;;;;;2.97;1.40;;;58.20;1.00;;;;;;5069668;28;20449;-60
2022/08/02 09:28:03;;;;;;;3.80;1.63;;;58.80;1.00;;;;;;5067258;28;20256;-58
2022/08/02 09:30:30;;;;;;;3.35;2.05;;;59.50;1.00;;;;;;5071864;28;20225;-58
2022/08/02 09:32:57;;;;;;;4.40;2.05;;;58.30;1.00;;;;;;5067929;28;20218;-60
2022/08/02 09:35:38;;;;;;;4.47;1.77;;;55.10;1.00;;;;;;5068102;28;20194;-59
2022/08/02 09:38:10;;;;;;;3.10;1.70;;;54.60;1.00;;;;;;5064005;28;20217;-59
2022/08/02 09:40:38;;;;;;;4.30;1.73;;;54.80;1.00;;;;;;5067276;28;20461;-59
2022/08/02 09:43:05;;;;;;;3.50;1.33;;;55.30;1.00;;;;;;5071339;28;20512;-59
2022/08/02 09:45:33;;;;;;;3.43;1.33;;;53.80;1.00;;;;;;5070553;28;20479;-58
2022/08/02 09:48:00;;;;;;;3.13;1.23;;;52.80;1.00;;;;;;5059543;28;20468;-58
2022/08/02 09:50:27;;;;;;;3.47;1.53;;;54.20;1.00;;;;;;5070674;28;20472;-55
2022/08/02 09:52:57;;;;;;;3.50;1.50;;;54.50;1.00;;;;;;5067977;28;20484;-55
2022/08/02 09:55:24;;;;;;;3.23;1.63;;;52.60;1.00;;;;;;5070434;28;20498;-55
2022/08/02 09:57:51;;;;;;;3.23;1.30;;;52.10;1.00;;;;;;5064752;28;20465;-55
2022/08/02 10:00:18;;;;;;;3.83;1.57;;;52.40;1.00;;;;;;5069926;28;20899;-55
2022/08/02 10:03:07;;;;;;;3.80;1.57;;;50.20;1.00;;;;;;5068708;28;20574;-55
2022/08/02 10:05:53;;;;;;;3.87;1.30;;;47.30;1.00;;;;;;5069923;28;20484;-55
2022/08/02 10:08:22;;;;;;;5.33;1.60;;;45.80;1.00;;;;;;5067472;28;20832;-56
2022/08/02 10:10:59;;;;;;;3.40;1.80;;;46.20;1.00;;;;;;5069727;28;20471;-55
2022/08/02 10:13:27;;;;;;;3.70;1.80;;;45.90;1.00;;;;;;5070767;28;20472;-56
2022/08/02 10:15:55;;;;;;;5.00;1.83;;;45.30;1.00;;;;;;5070031;28;20476;-55
2022/08/02 10:18:22;;;;;;;4.10;1.40;;;44.20;1.00;;;;;;5066310;28;20976;-55
2022/08/02 10:20:50;;;;;;;8.20;1.33;;;42.90;1.00;;;;;;5069382;28;20471;-55
2022/08/02 10:23:19;;;;;;;5.00;1.77;;;41.40;1.00;;;;;;5070448;28;20483;-56
2022/08/02 10:25:48;;;;;;;3.10;1.07;;;40.20;1.00;;;;;;5065822;28;20481;-56
2022/08/02 10:28:17;;;;;;;3.40;1.50;;;39.20;1.00;;;;;;5069222;28;20968;-54
2022/08/02 10:30:48;;;;;;;4.43;1.70;;;38.40;1.00;;;;;;5068895;28;20543;-54
2022/08/02 10:33:18;;;;;;;3.50;1.73;;;37.80;1.00;;;;;;5068618;28;20580;-54
2022/08/02 10:35:50;;;;;;;3.70;1.50;;;37.30;1.00;;;;;;5070483;28;20453;-55
2022/08/02 10:38:18;;;;;;;3.40;1.53;;;36.70;1.00;;;;;;5070200;28;20464;-55
2022/08/02 10:40:49;;;;;;;4.13;1.50;;;36.00;1.00;;;;;;5066496;28;20458;-54
2022/08/02 10:43:40;;;;;;;3.80;1.73;;;35.40;1.00;;;;;;5068568;28;20496;-54
2022/08/02 10:46:31;;;;;;;3.47;1.40;;;35.20;1.00;;;;;;5069844;28;20495;-55
2022/08/02 10:49:10;;;;;;;4.37;1.30;;;35.10;1.00;;;;;;5069084;28;20514;-55
2022/08/02 10:52:13;;;;;;;3.40;1.30;;;35.10;1.00;;;;;;5069738;28;20461;-54
2022/08/02 10:54:43;;;;;;;3.90;1.57;;;35.00;1.00;;;;;;5066244;28;20457;-54
2022/08/02 10:57:20;;;;;;;4.00;1.40;;;34.60;1.00;;;;;;5066142;28;20481;-54
2022/08/02 10:59:48;;;;;;;3.70;1.47;;;34.30;1.00;;;;;;5062976;28;20464;-54
2022/08/02 11:02:34;;;;;;;4.80;1.73;;;34.00;1.00;;;;;;5071220;28;20897;-53
2022/08/02 11:05:03;;;;;;;4.50;1.50;;;33.70;1.00;;;;;;5066449;28;20461;-57
2022/08/02 11:07:35;;;;;;;5.90;1.60;;;33.40;1.00;;;;;;5066807;28;20484;-56
2022/08/02 11:10:33;;;;;;;5.83;1.80;;;33.30;1.00;;;;;;5057534;28;20472;-56
2022/08/02 11:13:09;;;;;;;3.80;1.63;;;33.10;1.00;;;;;;5058883;28;20488;-57
2022/08/02 11:15:51;;;;;;;4.70;1.47;;;33.10;1.30;;;;;;5065618;28;20542;-56
2022/08/02 11:18:18;;;;;;;3.70;1.50;;;33.00;1.00;;;;;;5066447;28;20627;-57
2022/08/02 11:20:45;;;;;;;4.00;1.60;;;32.90;1.00;;;;;;5062343;28;20872;-59
2022/08/02 11:23:34;;;;;;;4.07;1.63;;;32.80;1.00;;;;;;5065797;28;20473;-57
2022/08/02 11:26:04;;;;;;;3.43;1.13;;;32.70;1.20;;;;;;5060282;28;20522;-58
2022/08/02 11:28:32;;;;;;;4.07;1.53;;;32.70;1.40;;;;;;5066538;28;20464;-57
2022/08/02 11:31:01;;;;;;;4.60;1.60;;;32.70;1.20;;;;;;5062636;28;20481;-58
2022/08/02 11:33:31;;;;;;;3.60;1.40;;;32.70;1.20;;;;;;5064314;28;20487;-57
2022/08/02 11:36:01;;;;;;;3.90;1.90;;;32.70;1.80;;;;;;5065277;28;20510;-58
2022/08/02 11:38:29;;;;;;;3.97;1.90;;;32.80;1.80;;;;;;5063479;28;20476;-57
2022/08/02 11:40:55;;;;;;;4.30;1.80;;;32.90;1.20;;;;;;5063503;28;21420;-56
2022/08/02 11:43:23;;;;;;;3.60;1.47;;;32.90;1.40;;;;;;5063580;28;21007;-58
2022/08/02 11:45:54;;;;;;;4.20;1.60;;;32.90;1.00;;;;;;5066905;28;20484;-58
2022/08/02 11:48:34;;;;;;;3.83;1.60;;;32.70;1.20;;;;;;5069978;28;21044;-58
2022/08/02 11:51:06;;;;;;;3.93;1.60;;;32.60;2.00;;;;;;5061648;28;20477;-58
2022/08/02 11:53:41;;;;;;;3.87;1.63;;;32.60;1.90;;;;;;5067480;28;20483;-58
2022/08/02 11:56:08;;;;;;;3.80;1.90;;;32.60;1.60;;;;;;5066975;28;20456;-58
2022/08/02 11:58:34;;;;;;;4.00;1.70;;;32.50;1.00;;;;;;5069770;28;20453;-57
2022/08/02 12:01:03;;;;;;;4.50;1.63;;;32.30;1.00;;;;;;5067345;28;20481;-56
2022/08/02 12:03:34;;;;;;;4.47;1.60;;;32.10;1.00;;;;;;5059929;28;20490;-55
2022/08/02 12:06:01;;;;;;;4.50;1.53;;;32.00;1.30;;;;;;5069380;28;20484;-58
2022/08/02 12:08:28;;;;;;;4.00;1.80;;;31.90;1.30;;;;;;5069422;28;21007;-59
2022/08/02 12:10:55;;;;;;;4.37;1.40;;;31.70;1.00;;;;;;5068746;28;20468;-58
2022/08/02 12:13:21;;;;;;;6.90;1.80;;;31.60;1.10;;;;;;5065340;28;20480;-58
2022/08/02 12:15:48;;;;;;;3.40;1.20;;;31.50;1.50;;;;;;5073701;28;20450;-59
2022/08/02 12:21:03;;;;;;;5.30;2.60;;;31.30;1.70;;;;;;5064430;28;21238;-59
2022/08/02 12:23:30;;;;;;;4.03;2.00;;;31.10;2.10;;;;;;5065201;28;20481;-59
2022/08/02 12:26:02;;;;;;;4.00;1.80;;;31.10;4.10;;;;;;5067135;28;20481;-60
2022/08/02 12:28:34;;;;;;;3.67;1.60;;;31.10;4.20;;;;;;5066626;28;20508;-57
2022/08/02 12:31:02;;;;;;;4.10;1.50;;;31.10;4.70;;;;;;5060564;28;20476;-57
2022/08/02 12:33:45;;;;;;;3.50;1.50;;;31.20;4.60;;;;;;5066629;28;20485;-56
2022/08/02 12:36:15;;;;;;;3.80;1.60;;;31.30;4.70;;;;;;5060546;28;20457;-57
2022/08/02 12:38:50;;;;;;;5.20;1.97;;;31.30;4.80;;;;;;5075183;28;20457;-55
2022/08/02 12:41:17;;;;;;;4.10;1.70;;;31.30;4.40;;;;;;5077916;28;20445;-55
2022/08/02 12:43:44;;;;;;;3.40;1.40;;;31.10;3.60;;;;;;5064233;28;21059;-54
2022/08/02 12:46:16;;;;;;;3.73;1.40;;;30.90;2.70;;;;;;5066919;28;20882;-54
2022/08/02 12:48:44;;;;;;;4.80;1.53;;;30.90;3.20;;;;;;5069093;28;20461;-54
2022/08/02 12:51:27;;;;;;;3.90;1.40;;;30.80;3.20;;;;;;5068752;28;20472;-54
2022/08/02 12:53:57;;;;;;;4.10;1.80;;;30.60;2.70;;;;;;5062001;28;20580;-56
2022/08/02 12:56:28;;;;;;;3.67;1.37;;;30.60;3.00;;;;;;5065794;28;20550;-58
2022/08/02 12:58:55;;;;;;;4.10;1.40;;;30.70;2.60;;;;;;5065798;28;20491;-55
2022/08/02 13:01:24;;;;;;;4.10;1.40;;;30.60;2.30;;;;;;5067532;28;20470;-58
2022/08/02 13:03:53;;;;;;;3.50;1.30;;;30.60;2.60;;;;;;5064540;28;20485;-55
2022/08/02 13:06:21;;;;;;;4.30;1.30;;;30.50;2.50;;;;;;5066900;28;20477;-58
2022/08/02 13:08:48;;;;;;;4.10;1.57;;;30.40;2.70;;;;;;5068867;28;20445;-58